createdAt,value
2018-11-27T00:02:07.011Z,18.20
2018-11-27T00:07:11.705Z,18.37
2018-11-27T00:12:16.321Z,17.87
2018-11-27T00:17:21.393Z,19.20
2018-11-27T00:22:26.226Z,18.23
2018-11-27T00:27:33.698Z,18.03
2018-11-27T00:32:39.128Z,18.70
2018-11-27T00:43:18.795Z,18.33
2018-11-27T00:48:23.363Z,17.80
2018-11-27T00:53:28.729Z,19.23
2018-11-27T00:58:33.259Z,19.40
2018-11-27T01:03:37.902Z,18.37
2018-11-27T01:08:42.892Z,18.07
2018-11-27T01:13:47.709Z,20.53
2018-11-27T01:18:52.682Z,18.43
2018-11-27T01:23:59.538Z,19.20
2018-11-27T01:29:05.431Z,18.07
2018-11-27T01:34:11.068Z,17.07
2018-11-27T01:39:21.199Z,18.23
2018-11-27T01:44:26.843Z,17.80
2018-11-27T01:49:32.491Z,18.23
2018-11-27T01:54:36.867Z,18.47
2018-11-27T01:59:42.306Z,18.33
2018-11-27T02:04:48.510Z,17.63
2018-11-27T02:09:53.256Z,19.17
2018-11-27T02:14:57.761Z,18.10
2018-11-27T02:20:02.478Z,17.23
2018-11-27T02:25:10.656Z,17.10
2018-11-27T02:30:16.579Z,17.33
2018-11-27T02:35:23.475Z,18.37
2018-11-27T02:40:27.935Z,18.20
2018-11-27T02:45:32.450Z,17.53
2018-11-27T02:50:37.030Z,17.97
2018-11-27T02:55:41.510Z,18.60
2018-11-27T03:00:46.110Z,18.60
2018-11-27T03:05:50.926Z,18.63
2018-11-27T03:10:55.808Z,18.57
2018-11-27T03:16:01.415Z,17.20
2018-11-27T03:21:06.803Z,18.37
2018-11-27T03:26:11.300Z,17.77
2018-11-27T03:31:15.897Z,17.43
2018-11-27T03:36:20.552Z,17.33
2018-11-27T03:41:25.692Z,17.70
2018-11-27T03:46:43.578Z,18.93
2018-11-27T03:51:48.368Z,17.47
2018-11-27T03:56:52.922Z,17.53
2018-11-27T04:01:57.790Z,18.23
2018-11-27T04:07:03.116Z,16.83
2018-11-27T04:12:07.681Z,19.47
2018-11-27T04:17:12.315Z,17.50
2018-11-27T04:22:17.154Z,17.20
2018-11-27T04:27:21.591Z,19.43
2018-11-27T04:32:26.265Z,18.57
2018-11-27T04:37:30.903Z,17.87
2018-11-27T04:42:35.631Z,17.97
2018-11-27T04:47:40.139Z,18.83
2018-11-27T04:52:44.825Z,17.43
2018-11-27T04:57:54.371Z,17.77
2018-11-27T05:02:59.873Z,18.60
2018-11-27T05:08:04.325Z,18.33
2018-11-27T05:13:08.862Z,18.83
2018-11-27T05:18:13.206Z,20.53
2018-11-27T05:23:17.542Z,20.67
2018-11-27T05:28:22.188Z,19.73
2018-11-27T05:33:26.813Z,18.80
2018-11-27T05:38:31.629Z,19.70
2018-11-27T05:43:36.083Z,18.90
2018-11-27T05:48:40.914Z,19.20
2018-11-27T05:53:45.694Z,18.47
2018-11-27T05:58:50.532Z,19.53
2018-11-27T06:03:55.456Z,19.23
2018-11-27T06:08:59.976Z,18.43
2018-11-27T06:14:05.897Z,18.10
2018-11-27T06:19:10.914Z,20.20
2018-11-27T06:24:16.227Z,19.40
2018-11-27T06:29:26.723Z,19.13
2018-11-27T06:34:31.652Z,19.60
2018-11-27T06:39:36.232Z,18.87
2018-11-27T06:44:41.114Z,20.17
2018-11-27T06:49:45.588Z,20.20
2018-11-27T06:54:51.912Z,21.93
2018-11-27T06:59:58.332Z,21.53
2018-11-27T07:05:02.799Z,20.27
2018-11-27T07:10:25.661Z,20.63
2018-11-27T07:15:30.281Z,20.43
2018-11-27T07:20:57.111Z,21.60
2018-11-27T07:26:01.547Z,20.47
2018-11-27T07:31:06.112Z,21.13
2018-11-27T07:36:10.427Z,20.77
2018-11-27T07:41:14.984Z,20.70
2018-11-27T07:46:19.367Z,20.67
2018-11-27T07:51:24.024Z,21.27
2018-11-27T07:56:28.692Z,21.80
2018-11-27T08:01:35.067Z,21.00
2018-11-27T08:06:40.187Z,22.77
2018-11-27T08:11:44.860Z,22.07
2018-11-27T08:16:49.265Z,22.00
2018-11-27T08:21:53.813Z,22.80
2018-11-27T08:26:58.289Z,21.80
2018-11-27T08:32:02.878Z,22.23
2018-11-27T08:37:07.442Z,20.70
2018-11-27T08:42:11.925Z,21.00
2018-11-27T08:47:16.454Z,22.17
2018-11-27T08:52:20.990Z,21.53
2018-11-27T08:57:25.388Z,19.73
2018-11-27T09:02:30.003Z,19.70
2018-11-27T09:07:34.423Z,19.00
2018-11-27T09:12:38.853Z,18.77
2018-11-27T09:17:44.926Z,18.60
2018-11-27T09:22:49.476Z,18.43
2018-11-27T09:27:59.244Z,18.73
2018-11-27T09:33:03.911Z,19.00
2018-11-27T09:38:09.090Z,17.97
2018-11-27T09:43:13.589Z,17.20
2018-11-27T09:48:18.418Z,17.23
2018-11-27T09:53:22.883Z,17.40
2018-11-27T09:58:27.638Z,17.50
2018-11-27T10:03:32.396Z,17.53
2018-11-27T10:08:37.131Z,18.03
2018-11-27T10:13:41.640Z,18.30
2018-11-27T10:18:51.013Z,18.00
2018-11-27T10:23:55.441Z,18.37
2018-11-27T10:28:59.901Z,18.50
2018-11-27T10:34:05.956Z,18.50
2018-11-27T10:39:10.293Z,19.20
2018-11-27T10:44:14.833Z,20.13
2018-11-27T10:49:21.113Z,21.00
2018-11-27T10:54:25.549Z,18.77
2018-11-27T10:59:29.914Z,19.23
2018-11-27T11:04:35.893Z,19.93
2018-11-27T11:09:42.017Z,17.10
2018-11-27T11:14:46.686Z,20.50
2018-11-27T11:19:51.113Z,20.67
2018-11-27T11:24:55.510Z,19.63
2018-11-27T11:30:12.080Z,18.77
2018-11-27T11:35:17.504Z,19.50
2018-11-27T11:40:23.988Z,18.90
2018-11-27T11:45:29.200Z,20.23
2018-11-27T11:50:35.151Z,20.37
2018-11-27T11:55:40.344Z,20.83
2018-11-27T12:00:56.248Z,20.37
2018-11-27T12:06:02.055Z,20.60
2018-11-27T12:11:06.476Z,21.67
2018-11-27T12:16:11.858Z,22.07
2018-11-27T12:21:18.308Z,21.47
2018-11-27T12:26:26.609Z,22.73
2018-11-27T12:31:31.327Z,21.07
2018-11-27T12:36:35.728Z,21.23
2018-11-27T12:41:40.177Z,22.33
2018-11-27T12:46:45.490Z,21.30
2018-11-27T12:51:51.084Z,21.53
2018-11-27T12:56:55.740Z,21.53
2018-11-27T13:02:01.112Z,21.53
2018-11-27T13:07:07.060Z,21.87
2018-11-27T13:12:11.814Z,20.87
2018-11-27T13:17:16.384Z,23.13
2018-11-27T13:22:21.420Z,22.00
2018-11-27T13:27:25.736Z,20.73
2018-11-27T13:32:30.825Z,19.43
2018-11-27T13:37:35.169Z,20.47
2018-11-27T13:42:39.915Z,20.10
2018-11-27T13:47:44.813Z,21.70
2018-11-27T13:52:49.126Z,21.10
2018-11-27T13:57:53.435Z,21.53
2018-11-27T14:08:13.904Z,20.83
2018-11-27T14:13:19.211Z,21.50
2018-11-27T14:18:24.025Z,21.07
2018-11-27T14:23:28.406Z,20.03
2018-11-27T14:28:32.763Z,21.17
2018-11-27T14:33:37.145Z,21.47
2018-11-27T14:38:41.769Z,22.20
2018-11-27T14:43:46.093Z,22.20
2018-11-27T14:48:50.445Z,20.97
2018-11-27T14:53:54.687Z,22.20
2018-11-27T14:58:59.224Z,21.47
2018-11-27T15:04:03.961Z,22.60
2018-11-27T15:09:10.282Z,22.70
2018-11-27T15:14:14.606Z,22.90
2018-11-27T15:19:28.210Z,22.57
2018-11-27T15:24:32.767Z,23.23
2018-11-27T15:29:37.357Z,21.93
2018-11-27T15:34:42.121Z,23.53
2018-11-27T15:39:46.969Z,21.87
2018-11-27T15:44:51.460Z,22.13
2018-11-27T15:49:56.016Z,23.00
2018-11-27T15:55:01.775Z,21.70
2018-11-27T16:00:16.135Z,21.40
2018-11-27T16:05:20.651Z,22.17
2018-11-27T16:10:25.190Z,23.97
2018-11-27T16:15:29.823Z,22.80
2018-11-27T16:20:34.358Z,23.17
2018-11-27T16:25:38.903Z,24.10
2018-11-27T16:30:43.238Z,23.03
2018-11-27T16:35:47.575Z,22.77
2018-11-27T16:40:52.086Z,22.90
2018-11-27T16:45:56.393Z,22.73
2018-11-27T16:51:00.897Z,22.60
2018-11-27T16:56:06.414Z,24.67
2018-11-27T17:01:12.339Z,24.50
2018-11-27T17:06:18.169Z,23.53
2018-11-27T17:11:24.005Z,22.73
2018-11-27T17:16:28.780Z,23.27
2018-11-27T17:21:33.627Z,22.43
2018-11-27T17:26:40.563Z,25.30
2018-11-27T17:31:45.318Z,24.83
2018-11-27T17:36:50.072Z,23.27
2018-11-27T17:41:54.966Z,24.47
2018-11-27T17:46:59.300Z,24.33
2018-11-27T17:52:04.030Z,23.03
2018-11-27T17:57:08.693Z,25.90
2018-11-27T18:02:13.180Z,24.83
2018-11-27T18:07:17.784Z,23.27
2018-11-27T18:12:22.244Z,24.03
2018-11-27T18:17:26.886Z,24.47
2018-11-27T18:22:31.562Z,25.23
2018-11-27T18:27:41.361Z,24.03
2018-11-27T18:32:45.854Z,23.73
2018-11-27T18:37:51.614Z,24.77
2018-11-27T18:42:56.157Z,23.73
2018-11-27T18:48:02.265Z,22.93
2018-11-27T18:53:07.075Z,24.80
2018-11-27T18:58:11.567Z,23.07
2018-11-27T19:03:16.733Z,23.90
2018-11-27T19:08:25.384Z,23.67
2018-11-27T19:13:29.914Z,22.87
2018-11-27T19:18:34.674Z,23.40
2018-11-27T19:23:39.170Z,24.43
2018-11-27T19:28:44.126Z,24.53
2018-11-27T19:33:49.040Z,24.33
2018-11-27T19:38:53.690Z,24.23
2018-11-27T19:43:58.051Z,25.30
2018-11-27T19:49:02.702Z,23.93
2018-11-27T19:54:07.842Z,24.63
2018-11-27T19:59:12.328Z,24.73
2018-11-27T20:04:17.071Z,26.23
2018-11-27T20:09:22.118Z,25.93
2018-11-27T20:14:26.907Z,25.63
2018-11-27T20:19:31.759Z,26.03
2018-11-27T20:24:36.592Z,25.00
2018-11-27T20:29:41.370Z,24.53
2018-11-27T20:34:46.345Z,26.37
2018-11-27T20:39:55.886Z,24.67
2018-11-27T20:45:00.713Z,26.00
2018-11-27T20:50:12.014Z,24.87
2018-11-27T20:55:11.632Z,25.43
2018-11-27T21:00:21.709Z,23.87
2018-11-27T21:05:26.389Z,24.67
2018-11-27T21:10:40.154Z,23.93
2018-11-27T21:15:45.357Z,26.37
2018-11-27T21:20:49.935Z,24.87
2018-11-27T21:25:56.470Z,25.57
2018-11-27T21:30:59.708Z,28.57
2018-11-27T21:36:04.827Z,25.00
2018-11-27T21:41:09.322Z,25.90
2018-11-27T21:46:14.007Z,24.90
2018-11-27T21:51:19.400Z,25.57
2018-11-27T21:56:24.074Z,25.07
2018-11-27T22:01:29.255Z,27.30
2018-11-27T22:06:33.922Z,26.30
2018-11-27T22:11:38.421Z,25.80
2018-11-27T22:16:42.719Z,26.73
2018-11-27T22:21:47.188Z,26.77
2018-11-27T22:26:51.885Z,25.70
2018-11-27T22:31:56.425Z,26.40
2018-11-27T22:37:00.964Z,25.67
2018-11-27T22:42:05.611Z,27.00
2018-11-27T22:47:19.413Z,26.63
2018-11-27T22:52:24.108Z,27.37
2018-11-27T22:57:28.813Z,30.37
2018-11-27T23:02:33.491Z,30.30
2018-11-27T23:07:41.988Z,30.83
2018-11-27T23:12:46.611Z,29.20
2018-11-27T23:18:00.329Z,29.43
2018-11-27T23:23:05.676Z,31.00
2018-11-27T23:28:29.268Z,30.53
2018-11-27T23:33:34.051Z,30.90
2018-11-27T23:38:38.526Z,28.70
2018-11-27T23:43:43.095Z,27.43
2018-11-27T23:48:48.114Z,28.90
2018-11-27T23:53:52.541Z,29.43
2018-11-27T23:58:57.127Z,29.37
